This is the latest recevied weather packets stored in our database for station/object ZL3GL-4. If no packets are shown the sender has not sent any weather packets the latest 10 day(s).
| Time | Temp. | Humidity | Pressure | Rain* | Wind** | Luminosity | Snow |
|---|---|---|---|---|---|---|---|
| 1778123988 | 17.22° C | 96% | 1004.9 hPa | 0 mm | 0.45 m/s, 104° | - | - |
| 1778123144 | 16.67° C | 95% | 1005.1 hPa | 0 mm | 0.89 m/s, 305° | - | - |
| 1778122302 | 17.22° C | 93% | 1005.6 hPa | 0 mm | 0.89 m/s, 357° | - | - |
| 1778121458 | 17.78° C | 91% | 1006 hPa | 0 mm | 1.34 m/s, 352° | - | - |
| 1778120615 | 17.78° C | 85% | 1006.3 hPa | 0 mm | 1.34 m/s, 24° | - | - |
| 1778119773 | 17.78° C | 85% | 1006.3 hPa | 0 mm | 0 m/s | - | - |
| 1778118930 | 17.78° C | 81% | 1006.1 hPa | 0 mm | 0 m/s | - | - |
| 1778118087 | 17.78° C | 82% | 1006 hPa | 0 mm | 0.45 m/s, 212° | - | - |
| 1778117243 | 17.22° C | 85% | 1006 hPa | 0 mm | 1.34 m/s, 167° | - | - |
| 1778116400 | 17.22° C | 85% | 1006.2 hPa | 0 mm | 0.89 m/s, 203° | - | - |
| 1778115557 | 16.67° C | 85% | 1006.4 hPa | 0 mm | 0.89 m/s, 141° | - | - |
| 1778114713 | 16.11° C | 85% | 1006.1 hPa | 0 mm | 1.34 m/s, 224° | - | - |
| 1778113870 | 16.11° C | 83% | 1006.7 hPa | 0 mm | 2.24 m/s, 270° | - | - |
| 1778112183 | 16.11° C | 79% | 1006.8 hPa | 0 mm | 0 m/s | - | - |
| 1778111341 | 16.67° C | 76% | 1007.2 hPa | 0 mm | 0.89 m/s, 181° | - | - |
| 1778109657 | 16.67° C | 73% | 1007.5 hPa | 0 mm | 0.45 m/s, 152° | - | - |
| 1778108811 | 16.11° C | 81% | 1007.5 hPa | 0 mm | 1.79 m/s, 134° | - | - |
| 1778107971 | 15.56° C | 80% | 1007.7 hPa | 0 mm | 1.79 m/s, 149° | - | - |
| 1778107128 | 15.56° C | 83% | 1008.1 hPa | 0 mm | 0.45 m/s, 75° | - | - |
| 1778106285 | 15.56° C | 81% | 1008.2 hPa | 0 mm | 0 m/s | - | - |
| 1778105440 | 15° C | 84% | 1008.5 hPa | 0 mm | 0.89 m/s, 131° | - | - |
| 1778104596 | 13.33° C | 94% | 1008.5 hPa | 0 mm | 0 m/s | - | - |
| 1778102911 | 11.67° C | 99% | 1009 hPa | 0 mm | 0 m/s | - | - |
| 1778102068 | 11.11° C | 100% | 1009.3 hPa | 0 mm | 0 m/s | - | - |
| 1778101225 | 11.11° C | 100% | 1009.7 hPa | 0 mm | 0 m/s | - | - |
* Rain latest hour (hover to see other rain measurements)
** Current wind speed in m/s (hover to see current wind gust speed)